Time;durP1;ratioP1;P1;durP2;ratioP2;P2;SDS_P1;SDS_P2;PMS_P1;PMS_P2;Temp;Humidity;BMP_temperature;BMP_pressure;BME280_temperature;BME280_humidity;BME280_pressure;Samples;Min_cycle;Max_cycle;Signal;HPM_P1;HPM_P2
2022/08/06 00:01:54;;;;;;;;;;;;;;;33.67;22.91;98798.84;4515154;31;34048;-85
2022/08/06 00:04:22;;;;;;;;;;;;;;;33.65;22.91;98804.37;4514995;31;33201;-85
2022/08/06 00:06:50;;;;;;;;;;;;;;;33.58;22.95;98805.91;4515227;31;34120;-85
2022/08/06 00:09:19;;;;;;;;;;;;;;;33.53;23.25;98802.78;4513665;31;35491;-85
2022/08/06 00:11:48;;;;;;;;;;;;;;;33.58;23.11;98802.38;4514988;31;34127;-85
2022/08/06 00:14:26;;;;;;;;;;;;;;;33.35;23.30;98820.50;4515227;31;33345;-85
2022/08/06 00:16:53;;;;;;;;;;;;;;;33.36;23.35;98820.34;4514179;31;34677;-85
2022/08/06 00:19:22;;;;;;;;;;;;;;;33.46;23.19;98811.50;4515009;31;34328;-85
2022/08/06 00:21:49;;;;;;;;;;;;;;;33.42;23.28;98810.91;4513680;31;33013;-85
2022/08/06 00:24:18;;;;;;;;;;;;;;;33.20;23.67;98819.13;4514977;31;33795;-85
2022/08/06 00:26:54;;;;;;;;;;;;;;;33.38;23.39;98815.69;4501575;31;32563;-85
2022/08/06 00:29:32;;;;;;;;;;;;;;;33.34;23.32;98819.63;4513427;31;33745;-85
2022/08/06 00:32:13;;;;;;;;;;;;;;;33.31;23.36;98809.16;4502196;31;34038;-85
2022/08/06 00:34:50;;;;;;;;;;;;;;;33.15;23.57;98820.37;4513511;31;33285;-85
2022/08/06 00:37:18;;;;;;;;;;;;;;;33.31;23.49;98819.06;4513473;31;33993;-85
2022/08/06 00:39:45;;;;;;;;;;;;;;;33.28;23.53;98825.53;4514942;31;34446;-85
2022/08/06 00:42:13;;;;;;;;;;;;;;;33.34;23.50;98818.78;4513058;31;33625;-85
2022/08/06 00:44:42;;;;;;;;;;;;;;;33.18;23.61;98825.47;4513456;31;34207;-85
2022/08/06 00:47:14;;;;;;;;;;;;;;;33.18;23.76;98820.09;4513404;31;34941;-85
2022/08/06 00:50:02;;;;;;;;;;;;;;;33.13;24.09;98826.84;4514669;31;34772;-85
2022/08/06 00:52:32;;;;;;;;;;;;;;;32.78;24.63;98819.94;4513246;31;34854;-85
2022/08/06 00:55:01;;;;;;;;;;;;;;;32.94;24.34;98822.19;4514577;31;34185;-85
2022/08/06 00:57:43;;;;;;;;;;;;;;;32.79;24.44;98813.59;4515296;31;35410;-85
2022/08/06 01:00:10;;;;;;;;;;;;;;;32.78;24.44;98817.25;4514393;31;34267;-85
2022/08/06 01:02:56;;;;;;;;;;;;;;;32.83;24.35;98808.81;4514726;31;34029;-85
2022/08/06 01:05:24;;;;;;;;;;;;;;;32.69;24.43;98810.84;4514777;31;32536;-85
2022/08/06 01:08:11;;;;;;;;;;;;;;;32.70;24.45;98806.31;4514653;31;34048;-85
2022/08/06 01:10:40;;;;;;;;;;;;;;;32.68;24.43;98810.94;4514265;31;34481;-85
2022/08/06 01:13:09;;;;;;;;;;;;;;;32.74;24.35;98810.44;4514232;31;34153;-85
2022/08/06 01:15:56;;;;;;;;;;;;;;;32.70;24.41;98798.25;4514133;31;33341;-85
2022/08/06 01:18:38;;;;;;;;;;;;;;;32.68;24.17;98801.06;4514541;31;32567;-85
2022/08/06 01:21:09;;;;;;;;;;;;;;;32.59;24.29;98801.00;4512712;31;34033;-85
2022/08/06 01:24:09;;;;;;;;;;;;;;;32.58;24.23;98805.53;4513439;31;34658;-85
2022/08/06 01:27:11;;;;;;;;;;;;;;;32.41;24.32;98798.00;4514338;31;33352;-85
2022/08/06 01:29:39;;;;;;;;;;;;;;;32.56;24.06;98803.94;4480631;31;33539;-85
2022/08/06 01:32:17;;;;;;;;;;;;;;;32.60;24.01;98803.53;4514959;31;34191;-86
2022/08/06 01:34:53;;;;;;;;;;;;;;;32.61;24.12;98794.50;4501446;31;32581;-85
2022/08/06 01:37:21;;;;;;;;;;;;;;;32.43;24.08;98802.28;4514920;31;34161;-85
2022/08/06 01:39:50;;;;;;;;;;;;;;;32.34;24.07;98796.78;4514621;31;33648;-85
2022/08/06 01:42:29;;;;;;;;;;;;;;;32.42;23.80;98799.72;4515022;31;33708;-85
2022/08/06 01:45:03;;;;;;;;;;;;;;;32.51;23.94;98804.31;4514899;31;34053;-85
2022/08/06 01:47:32;;;;;;;;;;;;;;;32.60;23.79;98802.69;4514696;31;33816;-85
2022/08/06 01:50:20;;;;;;;;;;;;;;;32.59;23.71;98803.69;4514957;31;34238;-85
2022/08/06 01:52:55;;;;;;;;;;;;;;;32.50;23.81;98796.37;4514914;31;35254;-85
2022/08/06 01:55:27;;;;;;;;;;;;;;;32.56;23.93;98804.78;4514779;31;34821;-85
2022/08/06 01:58:19;;;;;;;;;;;;;;;32.59;23.95;98798.31;4515448;31;33151;-85
2022/08/06 02:00:56;;;;;;;;;;;;;;;32.61;24.01;98789.13;4514861;31;34006;-85
2022/08/06 02:03:26;;;;;;;;;;;;;;;32.41;24.17;98793.50;4514775;31;33950;-85
2022/08/06 02:06:15;;;;;;;;;;;;;;;32.39;24.28;98797.25;4514763;31;34828;-85
2022/08/06 02:08:49;;;;;;;;;;;;;;;32.45;24.16;98794.94;4515945;31;34162;-86
2022/08/06 02:11:16;;;;;;;;;;;;;;;32.58;24.05;98793.91;4514776;31;34936;-85
2022/08/06 02:14:04;;;;;;;;;;;;;;;32.58;24.17;98800.16;4514943;31;34452;-85
2022/08/06 02:16:35;;;;;;;;;;;;;;;32.49;24.04;98800.06;4514597;31;34225;-85
2022/08/06 02:19:09;;;;;;;;;;;;;;;32.48;24.15;98803.72;4516147;31;32932;-85
2022/08/06 02:21:43;;;;;;;;;;;;;;;32.51;24.25;98801.66;4514983;31;33767;-85
2022/08/06 02:24:18;;;;;;;;;;;;;;;32.53;24.14;98799.66;4514611;31;34052;-85
2022/08/06 02:26:46;;;;;;;;;;;;;;;32.41;24.12;98792.66;4515771;31;34783;-85
2022/08/06 02:29:16;;;;;;;;;;;;;;;32.16;24.38;98793.78;4514630;31;34073;-85
2022/08/06 02:31:44;;;;;;;;;;;;;;;32.09;24.49;98798.81;4514383;31;34318;-85
2022/08/06 02:34:18;;;;;;;;;;;;;;;32.12;24.59;98798.53;4515019;31;34510;-85
2022/08/06 02:37:08;;;;;;;;;;;;;;;32.00;24.78;98793.34;4514473;31;33853;-85
2022/08/06 02:39:39;;;;;;;;;;;;;;;32.22;24.59;98798.66;4514144;31;33136;-85
2022/08/06 02:42:24;;;;;;;;;;;;;;;32.21;24.75;98796.97;4514470;31;34303;-85
2022/08/06 02:44:59;;;;;;;;;;;;;;;32.19;24.98;98798.91;4515798;31;34447;-85
2022/08/06 02:47:41;;;;;;;;;;;;;;;32.29;25.05;98802.53;4515648;31;35103;-85
2022/08/06 02:50:31;;;;;;;;;;;;;;;32.23;25.19;98797.66;4514381;31;33530;-85
2022/08/06 02:53:09;;;;;;;;;;;;;;;32.27;25.47;98796.44;4514316;31;33876;-85
2022/08/06 02:55:55;;;;;;;;;;;;;;;32.28;25.66;98800.84;4515383;31;34106;-85
2022/08/06 02:58:25;;;;;;;;;;;;;;;32.19;25.83;98797.06;4514460;31;33980;-85
2022/08/06 03:01:03;;;;;;;;;;;;;;;32.23;25.76;98792.31;4515298;31;33482;-85
2022/08/06 03:03:35;;;;;;;;;;;;;;;32.24;25.87;98791.34;4514385;31;34994;-85
2022/08/06 03:06:20;;;;;;;;;;;;;;;32.26;25.91;98800.09;4515120;31;35243;-85
2022/08/06 03:08:53;;;;;;;;;;;;;;;32.27;25.93;98799.13;4514290;31;34115;-85
2022/08/06 03:11:20;;;;;;;;;;;;;;;32.33;25.92;98803.13;4514210;31;33081;-85
2022/08/06 03:13:48;;;;;;;;;;;;;;;32.28;26.01;98805.31;4513988;31;34267;-85
2022/08/06 03:16:16;;;;;;;;;;;;;;;32.25;26.13;98803.78;4515661;31;34372;-85
2022/08/06 03:18:51;;;;;;;;;;;;;;;32.03;26.51;98796.63;4501852;31;34023;-85
2022/08/06 03:21:38;;;;;;;;;;;;;;;32.12;26.32;98800.38;4514408;31;33490;-85
2022/08/06 03:24:06;;;;;;;;;;;;;;;32.07;26.45;98803.44;4500982;31;34424;-85
2022/08/06 03:26:34;;;;;;;;;;;;;;;32.14;26.54;98798.44;4514154;31;34927;-85
2022/08/06 03:29:01;;;;;;;;;;;;;;;32.11;26.54;98801.38;4501091;31;34171;-85
2022/08/06 03:31:29;;;;;;;;;;;;;;;32.09;26.51;98804.19;4514081;31;33834;-85
2022/08/06 03:33:59;;;;;;;;;;;;;;;32.08;26.55;98806.97;4501316;31;33587;-85
2022/08/06 03:36:30;;;;;;;;;;;;;;;31.88;26.97;98812.13;4514011;31;34383;-85
2022/08/06 03:39:01;;;;;;;;;;;;;;;31.91;26.82;98814.56;4514002;31;33930;-85
2022/08/06 03:41:29;;;;;;;;;;;;;;;31.70;27.50;98813.56;4514097;31;33186;-85
2022/08/06 03:44:06;;;;;;;;;;;;;;;31.96;27.08;98804.31;4514114;31;34863;-85
2022/08/06 03:46:53;;;;;;;;;;;;;;;31.91;27.00;98809.22;4500863;31;32917;-85
2022/08/06 03:49:25;;;;;;;;;;;;;;;31.96;27.02;98803.47;4513593;31;33525;-85
2022/08/06 03:52:08;;;;;;;;;;;;;;;31.81;26.73;98805.53;4513675;31;33262;-85
2022/08/06 03:54:42;;;;;;;;;;;;;;;31.75;26.43;98806.03;4513837;31;34043;-85
2022/08/06 03:57:12;;;;;;;;;;;;;;;31.71;26.33;98804.56;4513862;31;34258;-85
2022/08/06 03:59:42;;;;;;;;;;;;;;;31.76;26.35;98804.19;4514069;31;35075;-85
2022/08/06 04:02:31;;;;;;;;;;;;;;;31.73;26.34;98806.13;4513920;31;33285;-85
2022/08/06 04:05:11;;;;;;;;;;;;;;;31.87;26.18;98805.06;4513707;31;34319;-85
2022/08/06 04:07:39;;;;;;;;;;;;;;;31.86;26.30;98806.06;4515033;31;35284;-85
2022/08/06 04:10:58;;;;;;;;;;;;;;;31.85;26.62;98803.44;4513897;31;34112;-85
2022/08/06 04:13:26;;;;;;;;;;;;;;;31.92;26.72;98815.41;4449686;32;32958;-85
2022/08/06 04:16:14;;;;;;;;;;;;;;;31.58;26.92;98820.75;4511898;31;35014;-85
2022/08/06 04:18:56;;;;;;;;;;;;;;;31.39;27.35;98834.75;4513688;31;34131;-85
2022/08/06 04:21:25;;;;;;;;;;;;;;;31.67;27.10;98829.88;4515202;31;34254;-85
2022/08/06 04:24:13;;;;;;;;;;;;;;;31.58;27.32;98830.62;4513989;31;33071;-85
2022/08/06 04:26:42;;;;;;;;;;;;;;;32.15;26.96;98840.38;4513808;31;34718;-85
2022/08/06 04:29:11;;;;;;;;;;;;;;;32.20;26.96;98835.47;4513853;31;34434;-85
2022/08/06 04:31:43;;;;;;;;;;;;;;;32.31;27.00;98832.75;4513599;31;33907;-85
2022/08/06 04:34:30;;;;;;;;;;;;;;;32.92;26.71;98833.06;4513722;31;33731;-85
2022/08/06 04:36:58;;;;;;;;;;;;;;;33.39;25.78;98835.34;4513469;31;34094;-85
2022/08/06 04:39:28;;;;;;;;;;;;;;;33.77;25.37;98829.34;4514766;31;33880;-85
2022/08/06 04:42:06;;;;;;;;;;;;;;;34.01;25.15;98829.00;4514481;31;34953;-85
2022/08/06 04:44:33;;;;;;;;;;;;;;;34.44;24.21;98832.34;4513374;31;33053;-85
2022/08/06 04:47:00;;;;;;;;;;;;;;;34.63;23.99;98840.50;4513449;31;34995;-85
2022/08/06 04:49:28;;;;;;;;;;;;;;;34.82;23.77;98840.47;4512957;31;34299;-86
2022/08/06 04:52:22;;;;;;;;;;;;;;;35.05;23.47;98846.44;4513537;31;34967;-86
2022/08/06 04:55:09;;;;;;;;;;;;;;;34.35;22.89;98851.03;4514619;31;33402;-85
2022/08/06 04:57:57;;;;;;;;;;;;;;;35.05;22.17;98851.00;4513303;31;33978;-85
2022/08/06 05:00:39;;;;;;;;;;;;;;;35.70;22.06;98857.37;4513456;31;34341;-85
2022/08/06 05:03:26;;;;;;;;;;;;;;;35.90;22.12;98854.59;4513415;31;34167;-85
2022/08/06 05:06:24;;;;;;;;;;;;;;;36.02;21.91;98850.72;4513487;31;34075;-85
2022/08/06 05:08:53;;;;;;;;;;;;;;;36.20;22.27;98854.31;4513260;31;34302;-85
2022/08/06 05:11:25;;;;;;;;;;;;;;;36.33;21.76;98855.78;4513099;31;33648;-85
2022/08/06 05:13:54;;;;;;;;;;;;;;;36.44;22.50;98863.69;4513005;31;34811;-85
2022/08/06 05:16:22;;;;;;;;;;;;;;;35.30;23.99;98858.44;4513147;31;33528;-85
2022/08/06 05:18:53;;;;;;;;;;;;;;;34.71;22.27;98864.00;4500080;31;33362;-85
2022/08/06 05:21:40;;;;;;;;;;;;;;;35.21;22.40;98866.56;4513104;31;35228;-85
2022/08/06 05:24:28;;;;;;;;;;;;;;;34.67;22.45;98868.84;4513154;31;34551;-85
2022/08/06 05:27:15;;;;;;;;;;;;;;;34.02;23.09;98870.19;4513118;31;33869;-85
2022/08/06 05:29:42;;;;;;;;;;;;;;;34.75;23.17;98871.66;4512726;31;33936;-85
2022/08/06 05:32:18;;;;;;;;;;;;;;;34.99;23.28;98873.94;4512668;31;34203;-86
2022/08/06 05:34:52;;;;;;;;;;;;;;;34.37;23.20;98875.97;4512607;31;33544;-84
2022/08/06 05:37:20;;;;;;;;;;;;;;;35.24;22.33;98874.38;4514013;31;32984;-86
2022/08/06 05:40:08;;;;;;;;;;;;;;;34.11;24.09;98880.16;4513992;31;33756;-86
2022/08/06 05:42:38;;;;;;;;;;;;;;;35.01;24.85;98876.53;4512602;31;34303;-85
2022/08/06 05:45:06;;;;;;;;;;;;;;;34.25;26.07;98889.69;4513783;31;34749;-85
2022/08/06 05:47:34;;;;;;;;;;;;;;;33.70;27.69;98895.37;4512324;31;32960;-87
2022/08/06 05:50:22;;;;;;;;;;;;;;;33.04;29.20;98895.66;4512527;31;34309;-84
2022/08/06 05:53:00;;;;;;;;;;;;;;;33.70;28.55;98898.06;4512532;31;33998;-85
2022/08/06 05:55:30;;;;;;;;;;;;;;;33.17;29.58;98903.50;4512523;31;33804;-85
2022/08/06 05:58:12;;;;;;;;;;;;;;;33.42;29.45;98889.69;4512592;31;34129;-86
2022/08/06 06:00:41;;;;;;;;;;;;;;;32.31;31.22;98883.72;4512234;31;35238;-84
2022/08/06 06:03:12;;;;;;;;;;;;;;;32.83;30.47;98884.81;4513408;31;35245;-85
2022/08/06 06:05:55;;;;;;;;;;;;;;;32.70;30.61;98890.38;4512545;31;34708;-86
2022/08/06 06:08:43;;;;;;;;;;;;;;;32.39;31.21;98897.41;4512490;31;34170;-85
2022/08/06 06:11:26;;;;;;;;;;;;;;;33.56;29.74;98893.03;4513489;31;34233;-85
2022/08/06 06:14:32;;;;;;;;;;;;;;;32.35;30.87;98890.56;4513509;31;35404;-84
2022/08/06 06:17:03;;;;;;;;;;;;;;;32.12;31.25;98895.09;4515820;31;34530;-84
2022/08/06 06:19:32;;;;;;;;;;;;;;;32.29;31.03;98904.47;4515870;31;33525;-84
2022/08/06 06:22:14;;;;;;;;;;;;;;;32.61;30.61;98890.28;4515830;31;34320;-83
2022/08/06 06:25:10;;;;;;;;;;;;;;;32.69;29.39;98890.50;4515856;31;35434;-83
2022/08/06 06:27:42;;;;;;;;;;;;;;;32.42;29.94;98891.78;4507839;31;34871;-85
2022/08/06 06:30:17;;;;;;;;;;;;;;;32.07;29.80;98897.31;4514648;31;33126;-85
2022/08/06 06:33:26;;;;;;;;;;;;;;;31.77;29.88;98899.72;4514728;31;33985;-85
2022/08/06 06:36:28;;;;;;;;;;;;;;;31.49;29.20;98899.19;4511892;31;35059;-84
2022/08/06 06:39:10;;;;;;;;;;;;;;;32.27;27.38;98895.69;4514311;31;33883;-84
2022/08/06 06:41:49;;;;;;;;;;;;;;;32.37;27.67;98893.97;4514523;31;33110;-84
2022/08/06 06:44:50;;;;;;;;;;;;;;;31.87;28.46;98906.94;4515850;31;34073;-85
2022/08/06 06:47:49;;;;;;;;;;;;;;;31.41;29.22;98910.50;4515752;31;34210;-84
2022/08/06 06:50:45;;;;;;;;;;;;;;;32.60;27.86;98910.06;4515462;31;33978;-84
2022/08/06 06:53:16;;;;;;;;;;;;;;;31.95;28.64;98915.22;4514515;31;34261;-84
2022/08/06 06:55:46;;;;;;;;;;;;;;;31.40;29.29;98911.47;4515716;31;33724;-84
2022/08/06 06:58:35;;;;;;;;;;;;;;;32.54;28.22;98910.53;4514253;31;34309;-85
2022/08/06 07:01:06;;;;;;;;;;;;;;;31.90;29.41;98916.59;4515419;31;34851;-87
2022/08/06 07:03:54;;;;;;;;;;;;;;;32.46;28.63;98917.38;4514380;31;33137;-85
2022/08/06 07:06:22;;;;;;;;;;;;;;;32.64;28.45;98916.88;4514053;31;34164;-85
2022/08/06 07:09:09;;;;;;;;;;;;;;;32.09;29.42;98915.97;4515436;31;34349;-87
2022/08/06 07:11:43;;;;;;;;;;;;;;;31.68;30.35;98918.22;4514051;31;33807;-85
2022/08/06 07:14:30;;;;;;;;;;;;;;;33.23;28.56;98913.75;4514193;31;34121;-84
2022/08/06 07:17:00;;;;;;;;;;;;;;;32.16;29.49;98922.53;4515324;31;35021;-84
2022/08/06 07:19:48;;;;;;;;;;;;;;;32.67;29.00;98913.94;4514298;31;34312;-84
2022/08/06 07:22:18;;;;;;;;;;;;;;;33.03;28.24;98922.62;4514034;31;34101;-84
2022/08/06 07:24:45;;;;;;;;;;;;;;;32.96;28.41;98929.47;4513926;31;33481;-85
2022/08/06 07:27:15;;;;;;;;;;;;;;;32.65;28.68;98924.78;4514278;31;34682;-84
2022/08/06 07:29:50;;;;;;;;;;;;;;;32.58;28.46;98928.09;4515488;31;34090;-85
2022/08/06 07:32:30;;;;;;;;;;;;;;;31.92;29.68;98931.53;4514207;31;34158;-86
2022/08/06 07:35:00;;;;;;;;;;;;;;;32.47;28.99;98926.31;4515445;31;33523;-86
2022/08/06 07:37:54;;;;;;;;;;;;;;;32.31;29.78;98926.66;4515481;31;34004;-85
2022/08/06 07:40:23;;;;;;;;;;;;;;;32.56;29.43;98938.97;4515366;31;35280;-86
2022/08/06 07:43:00;;;;;;;;;;;;;;;32.18;29.56;98936.69;4513900;31;34179;-85
2022/08/06 07:45:29;;;;;;;;;;;;;;;32.09;29.03;98935.59;4514135;31;33268;-86
2022/08/06 07:48:17;;;;;;;;;;;;;;;32.53;28.97;98943.72;4516039;31;33934;-86
2022/08/06 07:50:46;;;;;;;;;;;;;;;33.16;28.41;98939.41;4513825;31;33582;-85
2022/08/06 07:53:13;;;;;;;;;;;;;;;32.42;28.66;98934.72;4513969;31;34511;-85
2022/08/06 07:55:43;;;;;;;;;;;;;;;32.57;28.58;98934.44;4513861;31;33430;-86
2022/08/06 07:58:14;;;;;;;;;;;;;;;32.61;28.36;98933.22;4515117;31;34895;-85
2022/08/06 08:00:43;;;;;;;;;;;;;;;32.69;28.59;98937.00;4513875;31;34105;-85
2022/08/06 08:06:22;;;;;;;;;;;;;;;32.61;28.31;98939.44;4514318;31;32898;-85
2022/08/06 08:08:52;;;;;;;;;;;;;;;33.06;28.76;98935.78;4513795;31;34400;-85
2022/08/06 08:11:20;;;;;;;;;;;;;;;33.54;27.69;98938.88;4513630;31;35228;-85
2022/08/06 08:14:08;;;;;;;;;;;;;;;32.97;28.03;98936.56;4513938;31;34698;-85
2022/08/06 08:16:40;;;;;;;;;;;;;;;33.30;27.71;98941.81;4513906;31;33996;-84
2022/08/06 08:19:21;;;;;;;;;;;;;;;34.63;26.04;98937.41;4514845;31;35776;-84
2022/08/06 08:21:49;;;;;;;;;;;;;;;33.92;27.09;98937.38;4515136;31;34612;-84
2022/08/06 08:24:18;;;;;;;;;;;;;;;33.87;27.06;98942.31;4513777;31;33788;-84
2022/08/06 08:26:45;;;;;;;;;;;;;;;34.17;27.48;98937.94;4513784;31;32818;-84
2022/08/06 08:29:33;;;;;;;;;;;;;;;33.82;27.57;98942.69;4514998;31;33955;-84
2022/08/06 08:32:01;;;;;;;;;;;;;;;34.20;26.61;98941.22;4515219;31;34285;-85
2022/08/06 08:34:31;;;;;;;;;;;;;;;34.01;26.85;98935.75;4514878;31;33858;-84
2022/08/06 08:37:00;;;;;;;;;;;;;;;34.42;26.07;98928.53;4514144;31;33803;-85
2022/08/06 08:39:27;;;;;;;;;;;;;;;33.67;27.05;98938.66;4514764;31;33843;-85
2022/08/06 08:42:06;;;;;;;;;;;;;;;33.60;26.64;98932.97;4514795;31;35304;-84
2022/08/06 08:44:34;;;;;;;;;;;;;;;34.35;25.90;98939.00;4513449;31;34258;-84
2022/08/06 08:47:02;;;;;;;;;;;;;;;34.27;26.32;98930.75;4513322;31;33281;-86
2022/08/06 08:49:52;;;;;;;;;;;;;;;34.33;25.27;98935.59;4513143;31;35062;-84
2022/08/06 08:52:21;;;;;;;;;;;;;;;33.83;26.43;98939.06;4513442;31;35200;-84
2022/08/06 08:54:50;;;;;;;;;;;;;;;34.53;25.98;98933.84;4513097;31;34431;-84
2022/08/06 08:57:17;;;;;;;;;;;;;;;34.70;25.71;98935.88;4500229;31;32711;-85
2022/08/06 09:00:06;;;;;;;;;;;;;;;35.04;25.60;98936.34;4514427;31;34263;-84
2022/08/06 09:02:38;;;;;;;;;;;;;;;34.92;24.38;98944.66;4513191;31;34064;-84
2022/08/06 09:05:14;;;;;;;;;;;;;;;35.88;23.69;98940.19;4513623;31;33794;-84
2022/08/06 09:07:42;;;;;;;;;;;;;;;35.54;24.29;98938.91;4513396;31;33889;-84
2022/08/06 09:10:27;;;;;;;;;;;;;;;34.85;24.52;98942.56;4513030;31;35120;-84
2022/08/06 09:12:59;;;;;;;;;;;;;;;35.54;24.14;98932.66;4513223;31;33879;-84
2022/08/06 09:15:27;;;;;;;;;;;;;;;35.50;23.66;98942.03;4514419;31;34949;-85
2022/08/06 09:18:06;;;;;;;;;;;;;;;35.41;23.72;98942.84;4513111;31;32643;-84
2022/08/06 09:20:53;;;;;;;;;;;;;;;35.60;23.55;98940.16;4514238;31;34990;-84
2022/08/06 09:23:20;;;;;;;;;;;;;;;36.10;23.77;98945.25;4499408;31;33526;-83
2022/08/06 09:25:48;;;;;;;;;;;;;;;36.73;23.07;98939.97;4514199;31;34999;-85
2022/08/06 09:28:34;;;;;;;;;;;;;;;36.72;22.15;98934.75;4512966;31;33817;-85
2022/08/06 09:31:08;;;;;;;;;;;;;;;36.71;22.33;98939.31;4512819;31;35077;-85
2022/08/06 09:33:59;;;;;;;;;;;;;;;36.47;23.89;98936.31;4513932;31;35067;-84
2022/08/06 09:36:48;;;;;;;;;;;;;;;36.56;22.78;98935.44;4514102;31;34455;-85
2022/08/06 09:39:35;;;;;;;;;;;;;;;36.05;22.71;98931.38;4512573;31;33409;-86
2022/08/06 09:42:35;;;;;;;;;;;;;;;35.86;22.94;98936.81;4514108;31;34861;-84
2022/08/06 09:45:06;;;;;;;;;;;;;;;36.80;22.56;98936.69;4512712;31;32707;-85
2022/08/06 09:47:47;;;;;;;;;;;;;;;37.14;21.89;98939.56;4513986;31;33798;-85
2022/08/06 09:50:35;;;;;;;;;;;;;;;37.06;22.64;98937.66;4514742;31;33244;-84
2022/08/06 09:53:03;;;;;;;;;;;;;;;35.97;23.44;98934.78;4514992;31;34292;-84
2022/08/06 09:55:41;;;;;;;;;;;;;;;36.65;23.29;98939.06;4516143;31;34012;-84
2022/08/06 09:58:09;;;;;;;;;;;;;;;37.50;21.97;98930.41;4514946;31;34902;-84
2022/08/06 10:00:37;;;;;;;;;;;;;;;37.31;22.07;98935.97;4514991;31;33347;-85
2022/08/06 10:03:05;;;;;;;;;;;;;;;37.76;21.22;98950.38;4514605;31;33992;-84
2022/08/06 10:06:02;;;;;;;;;;;;;;;36.96;22.86;98928.75;4514996;31;35295;-84
2022/08/06 10:08:30;;;;;;;;;;;;;;;37.04;22.31;98928.84;4515807;31;35030;-84
2022/08/06 10:11:02;;;;;;;;;;;;;;;36.80;22.47;98931.28;4516050;31;33543;-84
2022/08/06 10:13:34;;;;;;;;;;;;;;;36.90;22.80;98929.34;4515835;31;34000;-84
2022/08/06 10:16:15;;;;;;;;;;;;;;;37.21;21.54;98936.09;4515843;31;34153;-84
2022/08/06 10:18:43;;;;;;;;;;;;;;;36.96;22.36;98926.06;4515881;31;33880;-84
2022/08/06 10:21:25;;;;;;;;;;;;;;;37.90;21.27;98929.03;4515839;31;33467;-84
2022/08/06 10:24:02;;;;;;;;;;;;;;;37.51;22.02;98931.28;4515762;31;34246;-84
2022/08/06 10:26:32;;;;;;;;;;;;;;;37.49;22.76;98941.41;4514610;31;34146;-84
2022/08/06 10:29:05;;;;;;;;;;;;;;;37.00;22.38;98927.44;4515819;31;34184;-86
2022/08/06 10:31:33;;;;;;;;;;;;;;;37.82;21.06;98934.37;4514316;31;34033;-84
2022/08/06 10:34:04;;;;;;;;;;;;;;;38.13;21.44;98926.59;4515812;31;34932;-84
2022/08/06 10:36:36;;;;;;;;;;;;;;;38.57;21.79;98929.19;4514208;31;34233;-85
2022/08/06 10:39:06;;;;;;;;;;;;;;;36.91;22.69;98922.94;4514404;31;33920;-85
2022/08/06 10:41:54;;;;;;;;;;;;;;;37.41;21.99;98930.50;4515698;31;34225;-85
2022/08/06 10:44:28;;;;;;;;;;;;;;;37.47;22.44;98924.50;4514467;31;33940;-85
2022/08/06 10:47:04;;;;;;;;;;;;;;;37.39;22.34;98933.37;4514526;31;34432;-84
2022/08/06 10:49:33;;;;;;;;;;;;;;;38.58;21.77;98928.16;4514181;31;33833;-85
2022/08/06 10:52:21;;;;;;;;;;;;;;;38.00;21.93;98919.94;4514795;31;33874;-80
2022/08/06 10:54:51;;;;;;;;;;;;;;;37.40;22.11;98928.81;4515542;31;34158;-85
2022/08/06 10:57:18;;;;;;;;;;;;;;;37.29;22.80;98929.06;4514309;31;34297;-85
2022/08/06 11:00:03;;;;;;;;;;;;;;;37.94;22.08;98916.88;4514039;31;34238;-85
2022/08/06 11:02:33;;;;;;;;;;;;;;;37.77;22.50;98920.44;4515626;31;33046;-88
2022/08/06 11:05:00;;;;;;;;;;;;;;;37.00;23.40;98908.53;4515426;31;33971;-89
2022/08/06 11:07:47;;;;;;;;;;;;;;;37.83;22.38;98924.38;4503141;31;33955;-86
2022/08/06 11:10:37;;;;;;;;;;;;;;;38.68;21.71;98920.72;4515701;31;34365;-84
2022/08/06 11:13:26;;;;;;;;;;;;;;;37.88;22.47;98920.19;4514146;31;33460;-85
2022/08/06 11:16:27;;;;;;;;;;;;;;;38.19;21.54;98917.84;4515476;31;35259;-84
2022/08/06 11:19:05;;;;;;;;;;;;;;;38.94;21.38;98906.22;4513858;31;33806;-84
2022/08/06 11:21:44;;;;;;;;;;;;;;;38.31;21.94;98907.56;4514182;31;34926;-86
2022/08/06 11:24:29;;;;;;;;;;;;;;;37.39;23.44;98914.44;4514546;31;33827;-85
2022/08/06 11:26:59;;;;;;;;;;;;;;;38.57;22.13;98912.91;4515767;31;34223;-85
2022/08/06 11:29:28;;;;;;;;;;;;;;;38.29;23.00;98906.00;4514174;31;35307;-84
2022/08/06 11:32:34;;;;;;;;;;;;;;;38.70;22.52;98901.59;4515614;31;34328;-89
2022/08/06 11:35:22;;;;;;;;;;;;;;;37.88;23.47;98909.38;4515420;31;34446;-86
2022/08/06 11:37:49;;;;;;;;;;;;;;;38.10;23.27;98909.84;4515284;31;33953;-84
2022/08/06 11:40:56;;;;;;;;;;;;;;;37.97;23.83;98894.91;4514505;31;34511;-88
2022/08/06 11:43:43;;;;;;;;;;;;;;;37.94;23.47;98895.22;4515317;31;35041;-85
2022/08/06 11:46:34;;;;;;;;;;;;;;;38.06;24.26;98903.91;4515332;31;33092;-84
2022/08/06 11:49:19;;;;;;;;;;;;;;;37.83;24.07;98902.75;4513859;31;34110;-85
2022/08/06 11:51:57;;;;;;;;;;;;;;;37.77;23.81;98909.63;4513860;31;33972;-86
2022/08/06 11:54:56;;;;;;;;;;;;;;;37.25;25.01;98912.31;4515434;31;34244;-84
2022/08/06 11:57:24;;;;;;;;;;;;;;;37.70;24.90;98908.59;4515250;31;33219;-85
2022/08/06 12:00:14;;;;;;;;;;;;;;;37.56;25.03;98906.47;4515257;31;33558;-84
2022/08/06 12:02:46;;;;;;;;;;;;;;;37.70;24.39;98904.03;4514158;31;34113;-86
2022/08/06 12:05:13;;;;;;;;;;;;;;;37.48;24.89;98913.50;4514923;31;34584;-85
2022/08/06 12:07:44;;;;;;;;;;;;;;;37.35;25.01;98898.66;4515202;31;33923;-84
2022/08/06 12:10:18;;;;;;;;;;;;;;;38.26;24.78;98914.47;4513879;31;34265;-84
2022/08/06 12:12:56;;;;;;;;;;;;;;;37.82;24.78;98912.72;4514176;31;34969;-84
2022/08/06 12:15:26;;;;;;;;;;;;;;;38.23;24.00;98915.66;4515169;31;34827;-84
2022/08/06 12:18:13;;;;;;;;;;;;;;;38.26;23.96;98909.03;4514942;31;35230;-84
2022/08/06 12:20:55;;;;;;;;;;;;;;;37.31;25.35;98910.81;4515120;31;34897;-84
2022/08/06 12:23:26;;;;;;;;;;;;;;;37.14;25.71;98912.53;4515037;31;34537;-84
2022/08/06 12:26:13;;;;;;;;;;;;;;;36.89;25.97;98909.56;4513894;31;34474;-84
2022/08/06 12:28:41;;;;;;;;;;;;;;;37.40;25.37;98916.13;4513733;31;33369;-86
2022/08/06 12:31:10;;;;;;;;;;;;;;;37.50;24.80;98914.19;4513779;31;35146;-87
2022/08/06 12:33:57;;;;;;;;;;;;;;;36.72;26.32;98919.37;4513866;31;34394;-85
2022/08/06 12:36:25;;;;;;;;;;;;;;;37.09;25.77;98921.13;4513657;31;34120;-85
2022/08/06 12:39:02;;;;;;;;;;;;;;;37.10;25.96;98919.28;4514713;31;32901;-87
2022/08/06 12:41:48;;;;;;;;;;;;;;;36.79;26.19;98930.44;4515056;31;34360;-86
2022/08/06 12:44:21;;;;;;;;;;;;;;;36.42;26.41;98914.28;4514918;31;33920;-85
2022/08/06 12:47:12;;;;;;;;;;;;;;;36.10;27.35;98929.06;4513640;31;34015;-86
2022/08/06 12:49:39;;;;;;;;;;;;;;;36.11;27.44;98928.09;4513139;31;33218;-85
2022/08/06 12:52:11;;;;;;;;;;;;;;;36.34;27.17;98935.81;4514627;31;33963;-86
2022/08/06 12:54:39;;;;;;;;;;;;;;;36.93;25.70;98926.31;4514476;31;34297;-86
2022/08/06 12:57:08;;;;;;;;;;;;;;;36.21;27.02;98926.19;4514644;31;35025;-84
2022/08/06 12:59:36;;;;;;;;;;;;;;;36.28;27.04;98921.88;4514824;31;33336;-86
2022/08/06 13:02:11;;;;;;;;;;;;;;;36.41;26.99;98928.81;4513168;31;34316;-85
2022/08/06 13:04:44;;;;;;;;;;;;;;;36.40;26.70;98927.94;4500640;31;33570;-84
2022/08/06 13:07:12;;;;;;;;;;;;;;;36.39;27.06;98925.38;4513289;31;34293;-85
2022/08/06 13:09:41;;;;;;;;;;;;;;;36.50;26.96;98930.62;4513482;31;33236;-84
2022/08/06 13:12:29;;;;;;;;;;;;;;;36.09;27.54;98935.47;4514362;31;34075;-84
2022/08/06 13:15:16;;;;;;;;;;;;;;;36.29;27.67;98918.22;4514269;31;35200;-84
2022/08/06 13:18:03;;;;;;;;;;;;;;;36.30;27.58;98927.16;4514173;31;34281;-84
2022/08/06 13:20:53;;;;;;;;;;;;;;;36.73;27.29;98918.37;4514353;31;34226;-87
2022/08/06 13:23:31;;;;;;;;;;;;;;;37.18;26.62;98928.28;4514108;31;33855;-86
2022/08/06 13:26:14;;;;;;;;;;;;;;;36.30;27.33;98929.84;4516504;31;34476;-86
2022/08/06 13:29:22;;;;;;;;;;;;;;;35.61;28.18;98920.25;4515162;31;34281;-85
2022/08/06 13:32:10;;;;;;;;;;;;;;;36.57;26.92;98926.31;4512069;31;33918;-84
2022/08/06 13:34:58;;;;;;;;;;;;;;;36.10;27.93;98934.47;4515205;31;33999;-85
2022/08/06 13:37:46;;;;;;;;;;;;;;;36.17;27.75;98929.34;4514918;31;34510;-86
2022/08/06 13:40:37;;;;;;;;;;;;;;;36.70;27.51;98923.22;4516178;31;33940;-85
2022/08/06 13:43:06;;;;;;;;;;;;;;;36.65;27.25;98931.78;4516110;31;32973;-85